createdAt,value
2019-04-14T00:00:32.067Z,100671.31
2019-04-14T00:03:41.156Z,100666.88
2019-04-14T00:06:16.479Z,100663.52
2019-04-14T00:08:52.201Z,100659.62
2019-04-14T00:11:54.847Z,100661.30
2019-04-14T00:14:35.679Z,100651.46
2019-04-14T00:17:21.598Z,100658.94
2019-04-14T00:20:25.509Z,100652.15
2019-04-14T00:23:11.341Z,100647.45
2019-04-14T00:25:48.611Z,100647.11
2019-04-14T00:28:45.253Z,100640.70
2019-04-14T00:31:23.887Z,100645.66
2019-04-14T00:34:29.043Z,100638.59
2019-04-14T00:37:33.610Z,100625.75
2019-04-14T00:40:12.979Z,100627.11
2019-04-14T00:43:11.401Z,100629.53
2019-04-14T00:46:12.815Z,100628.46
2019-04-14T00:48:51.778Z,100624.83
2019-04-14T00:51:38.238Z,100628.17
2019-04-14T00:54:17.550Z,100630.17
2019-04-14T00:56:54.094Z,100628.70
2019-04-14T00:59:33.437Z,100628.84
2019-04-14T01:02:31.848Z,100628.47
2019-04-14T01:05:13.116Z,100630.22
2019-04-14T01:07:52.326Z,100620.16
2019-04-14T01:10:35.218Z,100628.75
2019-04-14T01:13:09.939Z,100634.52
2019-04-14T01:15:51.531Z,100524.40
2019-04-14T01:18:18.988Z,100624.19
2019-04-14T01:21:32.815Z,100626.67
2019-04-14T01:24:18.717Z,100617.98
2019-04-14T01:27:01.717Z,100620.25
2019-04-14T01:29:38.558Z,100630.48
2019-04-14T01:32:15.417Z,100627.37
2019-04-14T01:35:13.929Z,100628.00
2019-04-14T01:38:10.783Z,100622.38
2019-04-14T01:40:55.256Z,100617.39
2019-04-14T01:43:38.565Z,100620.36
2019-04-14T01:46:31.464Z,100619.17
2019-04-14T01:49:07.439Z,100619.70
2019-04-14T01:52:18.807Z,100617.77
2019-04-14T01:55:15.566Z,100610.41
2019-04-14T01:58:07.869Z,100606.77
2019-04-14T02:01:10.545Z,100611.44
2019-04-14T02:03:45.760Z,100606.91
2019-04-14T02:06:22.235Z,100609.05
2019-04-14T02:09:08.196Z,100609.34
2019-04-14T02:11:44.440Z,100606.45
2019-04-14T02:14:32.952Z,100612.16
2019-04-14T02:17:20.126Z,100607.69
2019-04-14T02:20:01.351Z,100497.87
2019-04-14T02:22:48.420Z,100601.91
2019-04-14T02:25:31.763Z,100603.25
2019-04-14T02:28:13.334Z,100598.39
2019-04-14T02:31:13.969Z,100605.59
2019-04-14T02:34:22.007Z,100602.23
2019-04-14T02:37:12.448Z,100595.78
2019-04-14T02:39:54.284Z,100598.56
2019-04-14T02:42:48.279Z,100597.20
2019-04-14T02:45:52.028Z,100597.76
2019-04-14T02:48:29.236Z,100600.27
2019-04-14T02:50:55.816Z,100605.09
2019-04-14T02:56:15.864Z,100598.62
2019-04-14T02:58:58.381Z,100595.20
2019-04-14T03:02:10.317Z,100595.31
2019-04-14T03:04:25.816Z,100592.92
2019-04-14T03:07:45.730Z,100594.19
2019-04-14T03:10:31.903Z,100590.03
2019-04-14T03:13:09.234Z,100595.14
2019-04-14T03:15:56.815Z,100596.91
2019-04-14T03:21:40.207Z,100597.83
2019-04-14T03:24:31.805Z,100593.84
2019-04-14T03:27:22.720Z,100598.55
2019-04-14T03:30:34.173Z,100599.96
2019-04-14T03:38:24.505Z,100604.17
2019-04-14T03:41:24.185Z,100610.12
2019-04-14T03:44:01.280Z,100606.17
2019-04-14T03:51:57.832Z,100611.29
2019-04-14T03:54:45.596Z,100610.73
2019-04-14T03:57:12.579Z,100611.20
2019-04-14T04:00:05.702Z,100607.52
2019-04-14T04:02:55.473Z,100609.44
2019-04-14T04:05:30.290Z,100612.70
2019-04-14T04:08:09.956Z,100602.03
2019-04-14T04:10:51.374Z,100615.10
2019-04-14T04:13:34.455Z,100599.98
2019-04-14T04:20:15.157Z,100589.50
2019-04-14T04:23:14.184Z,100617.28
2019-04-14T04:26:19.726Z,100605.52
2019-04-14T04:29:14.276Z,100620.14
2019-04-14T04:32:07.793Z,100605.63
2019-04-14T04:35:13.754Z,100616.72
2019-04-14T04:38:12.262Z,100624.68
2019-04-14T04:44:09.417Z,100624.30
2019-04-14T04:47:03.407Z,100522.04
2019-04-14T04:49:36.129Z,100625.87
2019-04-14T04:52:13.973Z,100630.70
2019-04-14T04:54:53.708Z,100632.27
2019-04-14T04:57:31.014Z,100640.04
2019-04-14T05:00:17.794Z,100647.17
2019-04-14T05:02:57.126Z,100642.52
2019-04-14T05:06:02.595Z,100643.55
2019-04-14T05:08:52.993Z,100644.58
2019-04-14T05:11:55.213Z,100651.59
2019-04-14T05:14:44.009Z,100654.19
2019-04-14T05:17:25.567Z,100635.05
2019-04-14T05:20:03.181Z,100646.52
2019-04-14T05:22:40.274Z,100643.93
2019-04-14T05:25:25.423Z,100643.48
2019-04-14T05:28:24.770Z,100647.09
2019-04-14T05:31:07.626Z,100641.80
2019-04-14T05:33:49.042Z,100637.64
2019-04-14T05:36:30.673Z,100653.92
2019-04-14T05:39:04.941Z,100655.97
2019-04-14T05:41:54.992Z,100651.40
2019-04-14T05:44:23.400Z,100639.27
2019-04-14T05:47:19.742Z,100648.16
2019-04-14T05:50:07.326Z,100642.78
2019-04-14T05:52:45.677Z,100652.41
2019-04-14T05:55:35.099Z,100656.30
2019-04-14T05:58:12.158Z,100660.47
2019-04-14T06:00:50.539Z,100658.52
2019-04-14T06:03:45.705Z,100664.34
2019-04-14T06:06:18.176Z,100655.28
2019-04-14T06:08:59.053Z,100666.41
2019-04-14T06:11:41.464Z,100667.05
2019-04-14T06:14:18.697Z,100664.09
2019-04-14T06:17:16.311Z,100567.15
2019-04-14T06:19:52.284Z,100668.63
2019-04-14T06:22:32.700Z,100672.25
2019-04-14T06:25:12.027Z,100672.83
2019-04-14T06:27:46.835Z,100668.83
2019-04-14T06:31:02.897Z,100669.52
2019-04-14T06:33:56.170Z,100670.63
2019-04-14T06:37:03.513Z,100677.33
2019-04-14T06:39:56.269Z,100674.77
2019-04-14T06:42:26.418Z,100681.33
2019-04-14T06:45:32.647Z,100681.95
2019-04-14T06:48:12.347Z,100679.82
2019-04-14T06:50:57.112Z,100686.55
2019-04-14T06:53:41.373Z,100683.31
2019-04-14T06:56:34.970Z,100681.45
2019-04-14T06:59:14.889Z,100687.92
2019-04-14T07:01:53.444Z,100690.05
2019-04-14T07:04:34.454Z,100695.61
2019-04-14T07:07:18.330Z,100692.95
2019-04-14T07:09:57.006Z,100695.83
2019-04-14T07:12:32.377Z,100695.35
2019-04-14T07:15:15.541Z,100703.14
2019-04-14T07:17:52.736Z,100702.23
2019-04-14T07:20:36.114Z,100701.08
2019-04-14T07:23:12.574Z,100709.64
2019-04-14T07:25:48.535Z,100713.25
2019-04-14T07:28:29.414Z,100716.48
2019-04-14T07:31:28.198Z,100717.41
2019-04-14T07:34:28.360Z,100715.34
2019-04-14T07:37:45.361Z,100723.41
2019-04-14T07:40:35.938Z,100729.26
2019-04-14T07:43:36.872Z,100730.33
2019-04-14T07:46:35.502Z,100728.02
2019-04-14T07:49:55.545Z,100728.95
2019-04-14T07:52:51.495Z,100736.83
2019-04-14T07:55:48.194Z,100733.27
2019-04-14T07:59:09.139Z,100729.98
2019-04-14T08:02:03.412Z,100729.71
2019-04-14T08:04:44.063Z,100723.83
2019-04-14T08:07:19.388Z,100727.05
2019-04-14T08:09:57.232Z,100720.59
2019-04-14T08:12:45.772Z,100717.63
2019-04-14T08:15:58.532Z,100717.23
2019-04-14T08:18:42.272Z,100726.46
2019-04-14T08:21:19.564Z,100719.82
2019-04-14T08:23:54.107Z,100720.26
2019-04-14T08:26:29.760Z,100726.61
2019-04-14T08:29:18.181Z,100713.09
2019-04-14T08:32:02.935Z,100715.69
2019-04-14T08:34:38.948Z,100716.98
2019-04-14T08:37:16.034Z,100719.03
2019-04-14T08:39:47.810Z,100720.04
2019-04-14T08:42:52.441Z,100713.36
2019-04-14T08:45:33.882Z,100716.91
2019-04-14T08:48:42.518Z,100725.30
2019-04-14T08:51:23.793Z,100716.95
2019-04-14T08:54:29.456Z,100718.38
2019-04-14T08:57:22.633Z,100717.27
2019-04-14T09:00:13.294Z,100718.38
2019-04-14T09:03:15.438Z,100715.98
2019-04-14T09:06:10.451Z,100724.67
2019-04-14T09:09:10.414Z,100715.95
2019-04-14T09:11:54.713Z,100727.00
2019-04-14T09:14:56.425Z,100713.25
2019-04-14T09:17:26.235Z,100718.47
2019-04-14T09:20:01.384Z,100713.62
2019-04-14T09:22:35.503Z,100728.27
2019-04-14T09:25:19.346Z,100714.73
2019-04-14T09:28:15.737Z,100729.25
2019-04-14T09:30:54.073Z,100717.45
2019-04-14T09:33:34.654Z,100724.64
2019-04-14T09:36:23.432Z,100721.72
2019-04-14T09:39:10.942Z,100726.72
2019-04-14T09:42:06.954Z,100731.98
2019-04-14T09:44:49.867Z,100735.03
2019-04-14T09:47:28.130Z,100720.64
2019-04-14T09:50:07.522Z,100723.55
2019-04-14T09:52:55.060Z,100724.17
2019-04-14T09:55:33.222Z,100730.56
2019-04-14T09:58:13.058Z,100722.05
2019-04-14T10:01:00.862Z,100730.48
2019-04-14T10:03:39.454Z,100722.63
2019-04-14T10:06:20.740Z,100715.70
2019-04-14T10:08:57.423Z,100726.26
2019-04-14T10:11:47.923Z,100730.88
2019-04-14T10:14:13.411Z,100732.40
2019-04-14T10:16:48.750Z,100733.09
2019-04-14T10:19:29.855Z,100722.56
2019-04-14T10:22:11.701Z,100731.26
2019-04-14T10:25:06.023Z,100730.73
2019-04-14T10:27:50.446Z,100717.19
2019-04-14T10:30:24.444Z,100729.98
2019-04-14T10:33:11.548Z,100720.80
2019-04-14T10:35:52.328Z,100723.86
2019-04-14T10:38:33.067Z,100734.45
2019-04-14T10:41:21.495Z,100734.77
2019-04-14T10:43:57.098Z,100730.64
2019-04-14T10:46:35.212Z,100721.72
2019-04-14T10:49:16.807Z,100731.80
2019-04-14T10:51:54.724Z,100731.18
2019-04-14T10:54:30.451Z,100733.88
2019-04-14T10:57:08.297Z,100748.19
2019-04-14T10:59:44.344Z,100622.02
2019-04-14T11:02:29.314Z,100740.18
2019-04-14T11:05:17.507Z,100744.53
2019-04-14T11:08:13.680Z,100752.05
2019-04-14T11:10:56.514Z,100754.09
2019-04-14T11:13:35.021Z,100734.80
2019-04-14T11:16:16.789Z,100741.66
2019-04-14T11:19:08.522Z,100751.09
2019-04-14T11:21:43.101Z,100746.84
2019-04-14T11:24:46.816Z,100741.66
2019-04-14T11:27:33.342Z,100745.86
2019-04-14T11:30:20.935Z,100741.59
2019-04-14T11:33:17.041Z,100749.25
2019-04-14T11:36:34.743Z,100743.14
2019-04-14T11:39:16.607Z,100749.41
2019-04-14T11:42:01.129Z,100753.06
2019-04-14T11:44:55.595Z,100753.73
2019-04-14T11:47:25.874Z,100753.09
2019-04-14T11:50:18.646Z,100755.58
2019-04-14T11:53:15.410Z,100753.48
2019-04-14T11:56:11.555Z,100742.87
2019-04-14T11:58:53.267Z,100737.55
2019-04-14T12:01:51.445Z,100746.86
2019-04-14T12:04:45.962Z,100752.59
2019-04-14T12:07:42.139Z,100748.36
2019-04-14T12:10:39.716Z,100748.14
2019-04-14T12:13:35.702Z,100747.98
2019-04-14T12:16:15.213Z,100737.13
2019-04-14T12:19:00.425Z,100740.28
2019-04-14T12:21:45.167Z,100759.10
2019-04-14T12:24:23.968Z,100759.37
2019-04-14T12:26:59.686Z,100743.98
2019-04-14T12:29:41.208Z,100752.72
2019-04-14T12:32:19.205Z,100752.69
2019-04-14T12:35:07.861Z,100745.93
2019-04-14T12:37:49.425Z,100742.69
2019-04-14T12:40:24.153Z,100745.46
2019-04-14T12:43:39.879Z,100750.95
2019-04-14T12:46:32.987Z,100746.76
2019-04-14T12:49:09.529Z,100742.78
2019-04-14T12:52:20.985Z,100751.78
2019-04-14T12:54:53.574Z,100742.78
2019-04-14T12:57:50.250Z,100744.81
2019-04-14T13:00:47.445Z,100757.34
2019-04-14T13:03:26.838Z,100756.42
2019-04-14T13:06:02.449Z,100752.42
2019-04-14T13:08:38.757Z,100746.58
2019-04-14T13:11:19.381Z,100746.86
2019-04-14T13:14:06.463Z,100751.02
2019-04-14T13:19:54.724Z,100744.25
2019-04-14T13:22:34.877Z,100753.34
2019-04-14T13:25:17.735Z,100747.42
2019-04-14T13:28:02.373Z,100756.42
2019-04-14T13:31:00.649Z,100755.95
2019-04-14T13:33:54.973Z,100747.15
2019-04-14T13:36:34.175Z,100749.26
2019-04-14T13:39:17.093Z,100760.94
2019-04-14T13:42:24.073Z,100755.09
2019-04-14T13:44:56.578Z,100756.67
2019-04-14T13:47:30.334Z,100762.62
2019-04-14T13:50:37.742Z,100766.66
2019-04-14T13:53:43.377Z,100771.92
2019-04-14T13:56:41.082Z,100774.06
2019-04-14T13:59:18.802Z,100767.69
2019-04-14T14:01:59.048Z,100786.75
2019-04-14T14:04:40.619Z,100770.73
2019-04-14T14:07:17.668Z,100779.36
2019-04-14T14:09:51.590Z,100779.81
2019-04-14T14:12:54.900Z,100782.41
2019-04-14T14:15:45.251Z,100791.03
2019-04-14T14:18:31.777Z,100790.19
2019-04-14T14:21:39.348Z,100790.92
2019-04-14T14:24:35.772Z,100790.84
2019-04-14T14:27:17.846Z,100792.07
2019-04-14T14:30:07.031Z,100794.94
2019-04-14T14:32:41.892Z,100794.47
2019-04-14T14:35:28.411Z,100804.92
2019-04-14T14:38:38.568Z,100792.80
2019-04-14T14:41:29.794Z,100804.84
2019-04-14T14:44:25.839Z,100803.50
2019-04-14T14:47:47.076Z,100801.48
2019-04-14T14:50:32.972Z,100801.48
2019-04-14T14:53:33.685Z,100805.75
2019-04-14T14:56:26.370Z,100811.20
2019-04-14T14:59:05.721Z,100810.63
2019-04-14T15:01:48.245Z,100822.55
2019-04-14T15:04:37.277Z,100821.23
2019-04-14T15:07:31.882Z,100823.12
2019-04-14T15:10:23.004Z,100827.99
2019-04-14T15:13:15.224Z,100819.96
2019-04-14T15:16:25.742Z,100839.20
2019-04-14T15:19:19.150Z,100823.79
2019-04-14T15:21:55.649Z,100822.31
2019-04-14T15:24:37.385Z,100832.17
2019-04-14T15:27:19.026Z,100827.91
2019-04-14T15:30:25.924Z,100837.58
2019-04-14T15:33:04.008Z,100827.41
2019-04-14T15:35:54.299Z,100820.80
2019-04-14T15:38:35.825Z,100829.73
2019-04-14T15:41:15.152Z,100824.25
2019-04-14T15:44:00.765Z,100836.08
2019-04-14T15:46:47.676Z,100840.05
2019-04-14T15:49:47.983Z,100845.92
2019-04-14T15:52:28.020Z,100833.56
2019-04-14T15:55:06.880Z,100846.25
2019-04-14T15:58:13.580Z,100841.77
2019-04-14T16:04:22.771Z,100836.25
2019-04-14T16:07:33.355Z,100844.48
2019-04-14T16:10:26.305Z,100847.56
2019-04-14T16:13:43.002Z,100842.11
2019-04-14T16:16:32.538Z,100853.23
2019-04-14T16:19:29.388Z,100855.23
2019-04-14T16:24:51.961Z,100858.53
2019-04-14T16:27:49.298Z,100862.09
2019-04-14T16:30:46.157Z,100856.00
2019-04-14T16:33:27.957Z,100867.17
2019-04-14T16:36:08.496Z,100862.33
2019-04-14T16:38:43.210Z,100872.52
2019-04-14T16:41:41.333Z,100861.50
2019-04-14T16:44:31.723Z,100862.64
2019-04-14T16:47:18.554Z,100858.11
2019-04-14T16:50:08.739Z,100868.53
2019-04-14T16:53:09.292Z,100874.95
2019-04-14T16:56:09.434Z,100874.64
2019-04-14T16:59:03.917Z,100886.52
2019-04-14T17:02:10.384Z,100884.98
2019-04-14T17:04:41.458Z,100879.48
2019-04-14T17:07:16.523Z,100892.70
2019-04-14T17:10:05.681Z,100888.02
2019-04-14T17:12:51.401Z,100894.45
2019-04-14T17:15:40.381Z,100897.61
2019-04-14T17:18:57.713Z,100897.33
2019-04-14T17:21:57.393Z,100899.84
2019-04-14T17:25:29.643Z,100910.89
2019-04-14T17:28:39.870Z,100905.28
2019-04-14T17:31:27.337Z,100894.72
2019-04-14T17:34:24.756Z,100909.62
2019-04-14T17:37:32.518Z,100927.74
2019-04-14T17:40:33.804Z,100919.30
2019-04-14T17:46:40.227Z,100925.55
2019-04-14T17:50:03.105Z,100927.37
2019-04-14T17:53:22.259Z,100929.60
2019-04-14T17:56:30.112Z,100930.58
2019-04-14T17:59:52.858Z,100936.20
2019-04-14T18:03:15.057Z,100935.85
2019-04-14T18:06:12.363Z,100938.20
2019-04-14T18:09:16.294Z,100942.09
2019-04-14T18:12:24.565Z,100940.25
2019-04-14T18:15:32.032Z,100948.19
2019-04-14T18:18:34.621Z,100952.29
2019-04-14T18:21:45.089Z,100953.20
2019-04-14T18:24:41.553Z,100896.20
2019-04-14T18:27:36.498Z,100848.89
2019-04-14T18:30:38.745Z,100962.58
2019-04-14T18:34:12.385Z,100963.94
2019-04-14T18:37:29.432Z,100967.30
2019-04-14T18:40:46.717Z,100973.67
2019-04-14T18:43:51.270Z,100978.17
2019-04-14T18:46:48.774Z,100974.45
2019-04-14T18:49:49.292Z,100975.67
2019-04-14T18:52:30.041Z,100976.73
2019-04-14T18:55:27.732Z,100980.28
2019-04-14T18:58:27.064Z,100983.48
2019-04-14T19:01:33.649Z,100979.59
2019-04-14T19:04:20.075Z,100979.76
2019-04-14T19:06:55.838Z,100983.19
2019-04-14T19:13:03.724Z,100981.83
2019-04-14T19:16:03.250Z,100983.13
2019-04-14T19:18:56.193Z,100985.01
2019-04-14T19:21:57.798Z,100982.81
2019-04-14T19:24:45.989Z,100990.64
2019-04-14T19:27:32.444Z,100983.05
2019-04-14T19:30:37.755Z,100983.82
2019-04-14T19:33:35.774Z,100986.03
2019-04-14T19:36:11.866Z,100985.94
2019-04-14T19:38:58.510Z,100988.91
2019-04-14T19:41:40.412Z,100987.23
2019-04-14T19:44:17.713Z,100996.67
2019-04-14T19:47:02.448Z,100995.09
2019-04-14T19:49:44.059Z,100991.04
2019-04-14T19:52:39.980Z,100992.87
2019-04-14T19:55:23.730Z,100995.75
2019-04-14T19:58:17.696Z,100991.24
2019-04-14T20:01:09.453Z,101000.52
2019-04-14T20:03:51.832Z,101008.77
2019-04-14T20:06:25.668Z,101001.58
2019-04-14T20:09:11.326Z,101004.31
2019-04-14T20:12:12.661Z,101002.42
2019-04-14T20:15:15.664Z,101008.52
2019-04-14T20:18:06.403Z,101007.35
2019-04-14T20:21:09.648Z,100998.06
2019-04-14T20:24:04.378Z,101003.84
2019-04-14T20:27:06.199Z,101015.33
2019-04-14T20:29:57.521Z,101009.11
2019-04-14T20:33:01.749Z,101012.20
2019-04-14T20:35:41.124Z,101015.18
2019-04-14T20:38:43.936Z,101013.50
2019-04-14T20:41:24.876Z,101020.72
2019-04-14T20:44:03.204Z,101027.88
2019-04-14T20:46:43.236Z,101023.75
2019-04-14T20:49:28.013Z,101037.73
2019-04-14T20:52:08.388Z,101030.73
2019-04-14T20:54:48.677Z,101034.16
2019-04-14T20:57:28.031Z,101029.28
2019-04-14T21:00:03.057Z,101041.77
2019-04-14T21:03:22.883Z,101039.53
2019-04-14T21:06:35.342Z,101036.69
2019-04-14T21:09:34.139Z,101040.83
2019-04-14T21:12:34.767Z,101040.23
2019-04-14T21:15:25.523Z,101029.94
2019-04-14T21:18:30.145Z,101035.27
2019-04-14T21:22:03.190Z,101047.49
2019-04-14T21:28:37.231Z,101045.42
2019-04-14T21:31:28.075Z,101049.89
2019-04-14T21:34:31.927Z,101048.66
2019-04-14T21:37:23.233Z,101054.47
2019-04-14T21:40:32.851Z,101049.59
2019-04-14T21:43:13.718Z,101043.80
2019-04-14T21:45:55.141Z,101050.27
2019-04-14T21:48:52.214Z,101052.39
2019-04-14T21:51:46.629Z,101049.31
2019-04-14T21:54:22.766Z,101053.69
2019-04-14T21:57:20.909Z,101051.11
2019-04-14T22:00:43.877Z,101048.91
2019-04-14T22:03:23.139Z,101046.92
2019-04-14T22:06:18.003Z,101047.43
2019-04-14T22:08:50.901Z,101050.16
2019-04-14T22:11:35.188Z,101042.34
2019-04-14T22:14:11.304Z,101042.46
2019-04-14T22:16:50.192Z,101047.58
2019-04-14T22:19:46.032Z,101043.19
2019-04-14T22:22:43.948Z,101050.70
2019-04-14T22:25:37.475Z,101049.77
2019-04-14T22:28:17.535Z,101040.92
2019-04-14T22:30:53.281Z,101041.84
2019-04-14T22:33:33.111Z,101035.50
2019-04-14T22:36:24.136Z,101029.58
2019-04-14T22:39:04.054Z,101028.98
2019-04-14T22:41:52.052Z,101023.12
2019-04-14T22:44:35.847Z,101025.31
2019-04-14T22:47:28.064Z,101022.28
2019-04-14T22:50:09.272Z,101019.39
2019-04-14T22:52:52.022Z,101024.61
2019-04-14T22:55:43.940Z,101023.17
2019-04-14T22:58:39.754Z,101019.00
2019-04-14T23:01:39.578Z,101020.34
2019-04-14T23:07:55.299Z,101020.18
2019-04-14T23:11:18.232Z,101021.83
2019-04-14T23:14:20.799Z,101020.48
2019-04-14T23:17:27.630Z,101023.46
2019-04-14T23:20:35.339Z,101025.90
2019-04-14T23:24:09.412Z,101018.16
2019-04-14T23:26:29.002Z,101022.08
2019-04-14T23:29:19.254Z,101014.08
2019-04-14T23:31:53.586Z,101018.44
2019-04-14T23:34:40.022Z,101020.54
2019-04-14T23:37:25.310Z,101018.30
2019-04-14T23:40:06.454Z,101015.70
2019-04-14T23:42:42.912Z,101018.59
2019-04-14T23:45:19.638Z,101012.59
2019-04-14T23:48:00.807Z,101006.58
2019-04-14T23:50:46.786Z,101008.27
2019-04-14T23:53:28.049Z,101008.80
2019-04-14T23:56:18.961Z,101007.63
2019-04-14T23:59:23.942Z,101008.81
